Terminal Aerodrome Forecast
Issued by NWS

Home | Current Version | Previous Version | Text Only | Print | Product List | Glossary On
Versions: 1 2 3 4 5 6 7 8 9 10 11
000
FTUS43 KICT 131720
TAFRSL
TAF
KRSL 131720Z 1318/1418 33024G32KT P6SM SKC
     FM140000 34010KT P6SM SKC
     FM141100 33007KT P6SM OVC100=

USA.gov is the U.S. government's official web portal to all federal, state and local government web resources and services.